Time;durP1;ratioP1;P1;durP2;ratioP2;P2;SDS_P1;SDS_P2;PMS_P1;PMS_P2;Temp;Humidity;BMP_temperature;BMP_pressure;BME280_temperature;BME280_humidity;BME280_pressure;Samples;Min_cycle;Max_cycle;Signal;HPM_P1;HPM_P2
2022/03/04 00:00:54;;;;;;;28.98;15.20;;;;;;;;;;5089270;28;20050;-77
2022/03/04 00:03:20;;;;;;;33.13;15.35;;;;;;;;;;5078933;28;20459;-77
2022/03/04 00:05:46;;;;;;;28.50;15.52;;;;;;;;;;5087949;28;20082;-77
2022/03/04 00:08:12;;;;;;;28.90;15.60;;;;;;;;;;5086389;28;20020;-76
2022/03/04 00:10:38;;;;;;;30.85;15.55;;;;;;;;;;5081494;28;20028;-77
2022/03/04 00:13:05;;;;;;;30.70;14.63;;;;;;;;;;5081441;28;20059;-77
2022/03/04 00:15:31;;;;;;;24.27;13.32;;;;;;;;;;5089532;28;20487;-77
2022/03/04 00:17:57;;;;;;;28.48;14.57;;;;;;;;;;5078062;28;20033;-77
2022/03/04 00:20:23;;;;;;;24.50;13.55;;;;;;;;;;5089584;28;20115;-76
2022/03/04 00:22:50;;;;;;;26.75;14.30;;;;;;;;;;5078809;28;20078;-76
2022/03/04 00:25:16;;;;;;;24.88;11.85;;;;;;;;;;5078283;28;20472;-77
2022/03/04 00:27:42;;;;;;;24.35;13.93;;;;;;;;;;5085605;28;20031;-77
2022/03/04 00:30:08;;;;;;;23.75;12.73;;;;;;;;;;5081608;28;20024;-77
2022/03/04 00:32:35;;;;;;;25.02;12.85;;;;;;;;;;5079632;28;20047;-77
2022/03/04 00:35:01;;;;;;;21.80;11.38;;;;;;;;;;5073104;28;20132;-77
2022/03/04 00:37:28;;;;;;;22.25;12.35;;;;;;;;;;5080082;28;20020;-79
2022/03/04 00:39:54;;;;;;;18.95;11.88;;;;;;;;;;5072934;28;20090;-76
2022/03/04 00:42:20;;;;;;;21.92;13.32;;;;;;;;;;5083592;28;20055;-77
2022/03/04 00:44:46;;;;;;;21.17;11.82;;;;;;;;;;5064594;28;20051;-78
2022/03/04 00:47:12;;;;;;;23.67;12.02;;;;;;;;;;5073587;28;20028;-77
2022/03/04 00:49:38;;;;;;;23.23;11.75;;;;;;;;;;5082079;28;20028;-77
2022/03/04 00:52:04;;;;;;;21.98;11.30;;;;;;;;;;5081110;28;20042;-77
2022/03/04 00:54:30;;;;;;;21.20;12.60;;;;;;;;;;5082106;28;20028;-78
2022/03/04 00:56:56;;;;;;;18.15;10.75;;;;;;;;;;5084030;28;20032;-77
2022/03/04 00:59:23;;;;;;;26.65;11.50;;;;;;;;;;5076857;28;20077;-77
2022/03/04 01:01:49;;;;;;;22.67;11.45;;;;;;;;;;5082770;28;20052;-77
2022/03/04 01:04:15;;;;;;;23.42;10.98;;;;;;;;;;5087973;28;20016;-77
2022/03/04 01:06:41;;;;;;;21.95;11.25;;;;;;;;;;5076631;28;20035;-77
2022/03/04 01:09:07;;;;;;;27.17;11.65;;;;;;;;;;5074092;28;20086;-78
2022/03/04 01:11:33;;;;;;;19.52;11.27;;;;;;;;;;5077503;28;20047;-78
2022/03/04 01:13:59;;;;;;;18.77;10.90;;;;;;;;;;5078251;28;20039;-77
2022/03/04 01:16:25;;;;;;;20.67;10.95;;;;;;;;;;5085863;28;20506;-77
2022/03/04 01:18:51;;;;;;;21.10;11.32;;;;;;;;;;5084476;28;20067;-77
2022/03/04 01:21:17;;;;;;;21.85;10.77;;;;;;;;;;5080899;28;20055;-76
2022/03/04 01:23:43;;;;;;;20.20;10.57;;;;;;;;;;5083336;28;20038;-77
2022/03/04 01:26:10;;;;;;;19.00;10.85;;;;;;;;;;5083846;28;20052;-77
2022/03/04 01:28:36;;;;;;;18.70;10.02;;;;;;;;;;5089011;28;20060;-78
2022/03/04 01:31:02;;;;;;;21.98;11.40;;;;;;;;;;5083961;28;20043;-77
2022/03/04 01:33:28;;;;;;;17.42;9.43;;;;;;;;;;5081539;28;20039;-77
2022/03/04 01:35:54;;;;;;;22.55;10.75;;;;;;;;;;5060080;28;20052;-77
2022/03/04 01:38:20;;;;;;;18.35;9.52;;;;;;;;;;5104071;27;20513;-76
2022/03/04 01:40:47;;;;;;;20.27;11.27;;;;;;;;;;5094014;28;20086;-77
2022/03/04 01:43:13;;;;;;;20.58;11.80;;;;;;;;;;5097290;27;20028;-76
2022/03/04 01:45:39;;;;;;;19.52;11.18;;;;;;;;;;5104171;28;20020;-77
2022/03/04 01:48:06;;;;;;;22.27;10.32;;;;;;;;;;5099296;28;20111;-76
2022/03/04 01:50:32;;;;;;;18.23;10.20;;;;;;;;;;5098770;28;20036;-77
2022/03/04 01:52:59;;;;;;;19.38;10.73;;;;;;;;;;5090520;28;20044;-79
2022/03/04 01:55:25;;;;;;;21.30;9.95;;;;;;;;;;5102174;28;20069;-77
2022/03/04 01:57:51;;;;;;;26.67;11.45;;;;;;;;;;5106851;28;20106;-77
2022/03/04 02:00:17;;;;;;;20.20;10.80;;;;;;;;;;5091596;28;20055;-77
2022/03/04 02:02:44;;;;;;;20.13;11.20;;;;;;;;;;5103427;27;20028;-77
2022/03/04 02:05:14;;;;;;;16.63;9.73;;;;;;;;;;5087264;28;20031;-77
2022/03/04 02:07:40;;;;;;;19.63;9.70;;;;;;;;;;5096791;28;20024;-77
2022/03/04 02:10:06;;;;;;;23.85;11.07;;;;;;;;;;5101433;28;20027;-77
2022/03/04 02:12:32;;;;;;;21.95;11.32;;;;;;;;;;5109798;28;20044;-77
2022/03/04 02:14:58;;;;;;;19.80;10.63;;;;;;;;;;5099165;28;20028;-77
2022/03/04 02:17:24;;;;;;;17.00;9.93;;;;;;;;;;5096685;28;20019;-76
2022/03/04 02:19:52;;;;;;;20.88;10.65;;;;;;;;;;5096615;27;20035;-76
2022/03/04 02:22:18;;;;;;;19.05;10.27;;;;;;;;;;5100209;28;20606;-76
2022/03/04 02:24:44;;;;;;;17.30;9.18;;;;;;;;;;5104640;28;20483;-77
2022/03/04 02:27:10;;;;;;;17.15;10.13;;;;;;;;;;5102218;27;20036;-77
2022/03/04 02:29:36;;;;;;;16.30;9.95;;;;;;;;;;5102136;28;20023;-77
2022/03/04 02:32:03;;;;;;;19.17;10.32;;;;;;;;;;5093962;28;20149;-77
2022/03/04 02:34:29;;;;;;;19.00;10.25;;;;;;;;;;5106499;27;20047;-76
2022/03/04 02:36:56;;;;;;;19.00;9.70;;;;;;;;;;5109044;28;20020;-76
2022/03/04 02:39:22;;;;;;;16.33;9.88;;;;;;;;;;5077642;28;20039;-77
2022/03/04 02:41:48;;;;;;;20.23;10.55;;;;;;;;;;5096736;28;20042;-77
2022/03/04 02:44:14;;;;;;;23.25;10.38;;;;;;;;;;5094343;28;20036;-77
2022/03/04 02:46:41;;;;;;;21.75;11.35;;;;;;;;;;5098132;28;20086;-77
2022/03/04 02:49:07;;;;;;;19.50;10.25;;;;;;;;;;5093093;28;20032;-77
2022/03/04 02:51:34;;;;;;;23.98;10.73;;;;;;;;;;5095945;28;20036;-78
2022/03/04 02:54:00;;;;;;;24.70;11.10;;;;;;;;;;5094320;28;20503;-77
2022/03/04 02:56:26;;;;;;;19.27;10.57;;;;;;;;;;5110868;28;20039;-77
2022/03/04 02:58:52;;;;;;;22.10;11.65;;;;;;;;;;5107028;28;20044;-77
2022/03/04 03:01:18;;;;;;;19.33;10.65;;;;;;;;;;5107111;28;20117;-77
2022/03/04 03:03:44;;;;;;;23.00;11.93;;;;;;;;;;5105014;28;20032;-77
2022/03/04 03:06:11;;;;;;;29.35;12.23;;;;;;;;;;5112367;28;20037;-77
2022/03/04 03:08:37;;;;;;;23.50;11.82;;;;;;;;;;5107840;27;20032;-77
2022/03/04 03:11:03;;;;;;;19.85;10.68;;;;;;;;;;5109993;27;20449;-78
2022/03/04 03:13:30;;;;;;;24.63;11.63;;;;;;;;;;5115730;28;20399;-77
2022/03/04 03:15:56;;;;;;;25.40;12.48;;;;;;;;;;5106100;27;20028;-76
2022/03/04 03:18:22;;;;;;;24.38;11.23;;;;;;;;;;5112790;28;20444;-77
2022/03/04 03:20:48;;;;;;;22.27;11.68;;;;;;;;;;5088000;28;20031;-77
2022/03/04 03:23:14;;;;;;;20.10;11.25;;;;;;;;;;5114974;27;20110;-77
2022/03/04 03:25:40;;;;;;;24.70;12.18;;;;;;;;;;5100239;28;20057;-77
2022/03/04 03:28:07;;;;;;;26.48;12.20;;;;;;;;;;5081741;28;20047;-78
2022/03/04 03:30:33;;;;;;;26.98;12.90;;;;;;;;;;5111969;27;20027;-78
2022/03/04 03:32:59;;;;;;;29.70;13.13;;;;;;;;;;5113419;28;20078;-77
2022/03/04 03:35:26;;;;;;;23.83;12.65;;;;;;;;;;5104298;27;20051;-76
2022/03/04 03:37:52;;;;;;;20.88;11.63;;;;;;;;;;5098455;28;20042;-77
2022/03/04 03:40:18;;;;;;;24.83;12.25;;;;;;;;;;5101296;28;20531;-77
2022/03/04 03:42:44;;;;;;;24.23;12.20;;;;;;;;;;5103907;28;20027;-77
2022/03/04 03:45:11;;;;;;;28.60;12.90;;;;;;;;;;5079745;28;20127;-77
2022/03/04 03:47:38;;;;;;;25.38;12.02;;;;;;;;;;5107892;28;20113;-77
2022/03/04 03:50:05;;;;;;;31.58;12.60;;;;;;;;;;5100956;28;20020;-77
2022/03/04 03:52:32;;;;;;;27.10;12.93;;;;;;;;;;5086614;28;20487;-77
2022/03/04 03:54:58;;;;;;;26.00;12.30;;;;;;;;;;5108783;27;20471;-77
2022/03/04 03:57:25;;;;;;;24.15;12.27;;;;;;;;;;5102631;28;20032;-77
2022/03/04 03:59:51;;;;;;;27.42;13.13;;;;;;;;;;5092157;28;20106;-77
2022/03/04 04:02:17;;;;;;;24.73;13.30;;;;;;;;;;5104553;27;20150;-76
2022/03/04 04:04:44;;;;;;;22.38;12.52;;;;;;;;;;5109842;27;20028;-76
2022/03/04 04:07:14;;;;;;;33.90;13.65;;;;;;;;;;5101189;28;20028;-78
2022/03/04 04:09:40;;;;;;;27.80;13.38;;;;;;;;;;5101896;28;20024;-79
2022/03/04 04:12:06;;;;;;;22.73;12.38;;;;;;;;;;5100411;28;20130;-77
2022/03/04 04:14:32;;;;;;;26.10;12.65;;;;;;;;;;5091888;28;20020;-77
2022/03/04 04:16:59;;;;;;;27.95;14.02;;;;;;;;;;5096326;28;20025;-77
2022/03/04 04:19:25;;;;;;;26.98;13.63;;;;;;;;;;5087671;28;20445;-77
2022/03/04 04:21:51;;;;;;;27.00;12.85;;;;;;;;;;5105137;28;20132;-78
2022/03/04 04:24:18;;;;;;;24.60;13.10;;;;;;;;;;5104737;28;20035;-79
2022/03/04 04:26:44;;;;;;;26.92;13.32;;;;;;;;;;5097593;28;20031;-75
2022/03/04 04:29:11;;;;;;;27.95;12.85;;;;;;;;;;5103031;27;20035;-77
2022/03/04 04:31:38;;;;;;;29.10;14.27;;;;;;;;;;5096990;28;20474;-77
2022/03/04 04:34:04;;;;;;;25.85;12.90;;;;;;;;;;5094507;28;20052;-77
2022/03/04 04:36:30;;;;;;;31.17;13.68;;;;;;;;;;5096949;28;20042;-76
2022/03/04 04:38:57;;;;;;;27.75;13.40;;;;;;;;;;5103857;28;20024;-77
2022/03/04 04:41:23;;;;;;;27.38;14.48;;;;;;;;;;5103819;28;20027;-77
2022/03/04 04:43:49;;;;;;;28.65;13.88;;;;;;;;;;5088917;28;20632;-76
2022/03/04 04:46:15;;;;;;;25.15;13.43;;;;;;;;;;5096522;28;20036;-76
2022/03/04 04:48:42;;;;;;;28.20;13.95;;;;;;;;;;5105839;27;20028;-77
2022/03/04 04:51:08;;;;;;;28.13;14.70;;;;;;;;;;5093611;28;20060;-76
2022/03/04 04:53:35;;;;;;;29.08;14.02;;;;;;;;;;5099505;27;20084;-77
2022/03/04 04:56:02;;;;;;;31.92;15.00;;;;;;;;;;5105692;28;20043;-78
2022/03/04 04:58:28;;;;;;;31.85;14.65;;;;;;;;;;5107705;28;20031;-77
2022/03/04 05:00:54;;;;;;;35.63;15.23;;;;;;;;;;5105755;28;20020;-76
2022/03/04 05:03:24;;;;;;;27.38;13.73;;;;;;;;;;5096569;28;20047;-77
2022/03/04 05:05:50;;;;;;;30.77;15.02;;;;;;;;;;5097617;27;20115;-77
2022/03/04 05:08:17;;;;;;;27.17;14.00;;;;;;;;;;5106236;27;20429;-78
2022/03/04 05:10:43;;;;;;;29.55;14.60;;;;;;;;;;5102593;28;20039;-77
2022/03/04 05:13:11;;;;;;;26.98;14.13;;;;;;;;;;5098189;28;20067;-76
2022/03/04 05:15:37;;;;;;;31.58;14.95;;;;;;;;;;5111439;28;20036;-77
2022/03/04 05:18:03;;;;;;;27.98;13.90;;;;;;;;;;5101752;27;20027;-77
2022/03/04 05:20:29;;;;;;;28.40;14.35;;;;;;;;;;5100664;27;20024;-76
2022/03/04 05:22:55;;;;;;;29.20;15.15;;;;;;;;;;5094039;28;20059;-77
2022/03/04 05:25:21;;;;;;;32.20;14.57;;;;;;;;;;5085149;28;20475;-76
2022/03/04 05:27:47;;;;;;;29.50;14.20;;;;;;;;;;5108844;28;20085;-78
2022/03/04 05:30:14;;;;;;;27.02;14.50;;;;;;;;;;5095285;28;20036;-77
2022/03/04 05:32:40;;;;;;;28.88;15.23;;;;;;;;;;5105973;28;20043;-76
2022/03/04 05:35:06;;;;;;;31.17;15.65;;;;;;;;;;5092933;28;20075;-77
2022/03/04 05:37:32;;;;;;;29.65;15.05;;;;;;;;;;5098500;27;20035;-79
2022/03/04 05:39:58;;;;;;;29.63;14.20;;;;;;;;;;5095745;28;20467;-76
2022/03/04 05:42:25;;;;;;;32.85;14.25;;;;;;;;;;5103773;28;20043;-76
2022/03/04 05:44:51;;;;;;;30.38;15.35;;;;;;;;;;5107814;28;20024;-75
2022/03/04 05:47:17;;;;;;;28.95;16.08;;;;;;;;;;5106723;27;20024;-80
2022/03/04 05:49:43;;;;;;;52.13;25.25;;;;;;;;;;5081296;28;20468;-80
2022/03/04 05:52:10;;;;;;;40.10;19.00;;;;;;;;;;5100877;28;20027;-79
2022/03/04 05:54:36;;;;;;;40.80;14.80;;;;;;;;;;5078764;28;20494;-78
2022/03/04 05:57:02;;;;;;;28.80;14.85;;;;;;;;;;5098682;27;20022;-78
2022/03/04 05:59:28;;;;;;;31.80;14.95;;;;;;;;;;5087287;28;20032;-75
2022/03/04 06:01:54;;;;;;;29.60;15.07;;;;;;;;;;5101168;28;20047;-77
2022/03/04 06:04:20;;;;;;;30.77;14.80;;;;;;;;;;5108311;28;20106;-78
2022/03/04 06:06:46;;;;;;;38.95;17.25;;;;;;;;;;5102033;27;20153;-77
2022/03/04 06:09:12;;;;;;;32.22;15.73;;;;;;;;;;5102141;28;20028;-77
2022/03/04 06:11:39;;;;;;;33.88;16.85;;;;;;;;;;5108255;27;20084;-77
2022/03/04 06:14:06;;;;;;;31.33;15.10;;;;;;;;;;5103746;28;20411;-77
2022/03/04 06:16:32;;;;;;;38.78;17.23;;;;;;;;;;5101076;28;20026;-80
2022/03/04 06:18:58;;;;;;;42.42;19.60;;;;;;;;;;5102428;28;20050;-78
2022/03/04 06:21:24;;;;;;;39.47;18.52;;;;;;;;;;5099397;28;20035;-77
2022/03/04 06:23:50;;;;;;;48.25;16.98;;;;;;;;;;5095920;28;20036;-78
2022/03/04 06:26:17;;;;;;;38.72;17.65;;;;;;;;;;5101172;27;20024;-78
2022/03/04 06:28:43;;;;;;;38.15;16.98;;;;;;;;;;5097361;28;20024;-78
2022/03/04 06:31:09;;;;;;;36.65;17.90;;;;;;;;;;5099580;28;20034;-78
2022/03/04 06:33:37;;;;;;;37.67;18.40;;;;;;;;;;5099841;28;20073;-78
2022/03/04 06:36:05;;;;;;;33.63;15.13;;;;;;;;;;5103953;28;20051;-80
2022/03/04 06:38:32;;;;;;;39.60;18.45;;;;;;;;;;5104119;28;20364;-79
2022/03/04 06:40:58;;;;;;;42.58;19.40;;;;;;;;;;5089165;28;20059;-78
2022/03/04 06:43:25;;;;;;;38.28;19.73;;;;;;;;;;5104632;28;20036;-79
2022/03/04 06:45:51;;;;;;;36.10;16.83;;;;;;;;;;5081212;28;20023;-77
2022/03/04 06:48:18;;;;;;;40.92;17.70;;;;;;;;;;5114058;27;20089;-77
2022/03/04 06:50:45;;;;;;;35.65;18.17;;;;;;;;;;5096480;28;20028;-78
2022/03/04 06:53:11;;;;;;;34.13;19.08;;;;;;;;;;5101438;28;20028;-77
2022/03/04 06:55:40;;;;;;;38.85;17.77;;;;;;;;;;5093094;28;20070;-78
2022/03/04 06:58:06;;;;;;;39.33;19.23;;;;;;;;;;5085380;28;20020;-78
2022/03/04 07:00:32;;;;;;;36.10;18.40;;;;;;;;;;5077415;28;20039;-77
2022/03/04 07:02:58;;;;;;;37.25;19.55;;;;;;;;;;5099325;28;20066;-78
2022/03/04 07:05:25;;;;;;;37.15;16.30;;;;;;;;;;5088199;28;20475;-78
2022/03/04 07:07:52;;;;;;;38.92;19.75;;;;;;;;;;5095812;28;20063;-81
2022/03/04 07:10:19;;;;;;;38.10;19.15;;;;;;;;;;5100022;28;20059;-76
2022/03/04 07:12:45;;;;;;;45.90;24.30;;;;;;;;;;5088343;28;20081;-81
2022/03/04 07:15:11;;;;;;;44.35;22.30;;;;;;;;;;5110663;28;20053;-77
2022/03/04 07:17:37;;;;;;;38.83;18.90;;;;;;;;;;5104872;28;20035;-79
2022/03/04 07:20:04;;;;;;;38.85;19.83;;;;;;;;;;5110157;28;20020;-78
2022/03/04 07:22:30;;;;;;;45.97;20.08;;;;;;;;;;5103173;28;20031;-77
2022/03/04 07:24:57;;;;;;;40.65;19.65;;;;;;;;;;5096753;28;20024;-77
2022/03/04 07:27:23;;;;;;;35.33;19.17;;;;;;;;;;5100687;28;20034;-76
2022/03/04 07:29:49;;;;;;;38.35;19.10;;;;;;;;;;5105254;28;20031;-77
2022/03/04 07:32:15;;;;;;;40.65;20.00;;;;;;;;;;5099460;28;20043;-76
2022/03/04 07:34:41;;;;;;;38.13;19.33;;;;;;;;;;5070947;28;20039;-76
2022/03/04 07:37:07;;;;;;;39.00;18.45;;;;;;;;;;5101229;28;20023;-76
2022/03/04 07:39:33;;;;;;;40.38;18.95;;;;;;;;;;5091292;28;20036;-77
2022/03/04 07:42:01;;;;;;;36.70;19.13;;;;;;;;;;5098400;27;20101;-76
2022/03/04 07:44:27;;;;;;;31.90;17.50;;;;;;;;;;5108534;28;20054;-76
2022/03/04 07:46:54;;;;;;;37.85;19.85;;;;;;;;;;5101150;28;20554;-79
2022/03/04 07:49:20;;;;;;;36.30;18.40;;;;;;;;;;5100711;28;20081;-79
2022/03/04 07:51:47;;;;;;;34.30;19.27;;;;;;;;;;5111724;27;20038;-76
2022/03/04 07:54:13;;;;;;;33.72;18.65;;;;;;;;;;5107209;27;20397;-76
2022/03/04 07:56:39;;;;;;;37.05;17.95;;;;;;;;;;5109579;28;20373;-77
2022/03/04 07:59:06;;;;;;;38.17;19.35;;;;;;;;;;5110148;27;20429;-75
2022/03/04 08:01:32;;;;;;;42.20;17.83;;;;;;;;;;5104763;28;20490;-79
2022/03/04 08:03:58;;;;;;;45.63;22.75;;;;;;;;;;5097258;27;20089;-77
2022/03/04 08:06:24;;;;;;;44.33;20.13;;;;;;;;;;5083453;28;20112;-77
2022/03/04 08:08:50;;;;;;;40.70;19.63;;;;;;;;;;5101865;28;20108;-79
2022/03/04 08:11:16;;;;;;;32.63;17.98;;;;;;;;;;5111625;27;20052;-77
2022/03/04 08:13:42;;;;;;;39.75;20.17;;;;;;;;;;5105468;27;20444;-77
2022/03/04 08:16:09;;;;;;;38.90;19.65;;;;;;;;;;5082984;28;20051;-76
2022/03/04 08:18:35;;;;;;;40.90;19.95;;;;;;;;;;5102292;28;20028;-77
2022/03/04 08:21:01;;;;;;;32.75;16.73;;;;;;;;;;5108646;28;20050;-77
2022/03/04 08:23:28;;;;;;;35.17;19.50;;;;;;;;;;5099015;28;20137;-77
2022/03/04 08:25:55;;;;;;;34.60;19.95;;;;;;;;;;5098761;27;20359;-77
2022/03/04 08:28:21;;;;;;;35.33;19.73;;;;;;;;;;5105680;28;20032;-77
2022/03/04 08:30:48;;;;;;;37.25;17.95;;;;;;;;;;5105401;28;20031;-76
2022/03/04 08:33:14;;;;;;;27.50;17.00;;;;;;;;;;5105610;28;20076;-76
2022/03/04 08:35:40;;;;;;;41.35;19.00;;;;;;;;;;5105506;28;20063;-77
2022/03/04 08:38:06;;;;;;;37.15;19.23;;;;;;;;;;5106037;28;20032;-78
2022/03/04 08:40:32;;;;;;;34.40;20.30;;;;;;;;;;5090203;28;20511;-77
2022/03/04 08:42:58;;;;;;;34.33;19.83;;;;;;;;;;5104225;28;20028;-78
2022/03/04 08:45:25;;;;;;;36.33;19.75;;;;;;;;;;5112078;28;20035;-76
2022/03/04 08:47:51;;;;;;;36.40;20.00;;;;;;;;;;5093082;28;20055;-77
2022/03/04 08:50:17;;;;;;;37.13;19.98;;;;;;;;;;5105050;28;20039;-78
2022/03/04 08:52:44;;;;;;;31.80;18.98;;;;;;;;;;5104226;28;20523;-79
2022/03/04 08:55:17;;;;;;;35.22;20.17;;;;;;;;;;5102013;28;20107;-78
2022/03/04 08:57:46;;;;;;;37.17;19.90;;;;;;;;;;5088662;28;20382;-78
2022/03/04 09:00:14;;;;;;;37.55;21.02;;;;;;;;;;5105238;27;20028;-79
2022/03/04 09:02:40;;;;;;;52.00;30.25;;;;;;;;;;5105133;28;20104;-80
2022/03/04 09:05:06;;;;;;;75.15;39.58;;;;;;;;;;5120941;28;20075;-82
2022/03/04 09:07:32;;;;;;;35.42;20.70;;;;;;;;;;5114638;28;20499;-80
2022/03/04 09:09:59;;;;;;;34.92;19.58;;;;;;;;;;5109175;28;20035;-78
2022/03/04 09:12:25;;;;;;;34.78;21.50;;;;;;;;;;5107103;28;20019;-78
2022/03/04 09:14:51;;;;;;;35.95;20.95;;;;;;;;;;5102593;28;20028;-78
2022/03/04 09:17:17;;;;;;;34.53;21.02;;;;;;;;;;5103661;28;20144;-78
2022/03/04 09:19:43;;;;;;;33.08;19.77;;;;;;;;;;5103711;28;20093;-78
2022/03/04 09:22:10;;;;;;;32.72;19.05;;;;;;;;;;5109052;28;20016;-78
2022/03/04 09:24:36;;;;;;;35.85;20.77;;;;;;;;;;5081481;28;20028;-78
2022/03/04 09:27:02;;;;;;;36.33;18.90;;;;;;;;;;5101767;28;20997;-79
2022/03/04 09:29:28;;;;;;;34.40;21.48;;;;;;;;;;5100897;28;20036;-77
2022/03/04 09:31:54;;;;;;;38.20;20.85;;;;;;;;;;5078856;28;20020;-78
2022/03/04 09:34:20;;;;;;;34.05;18.98;;;;;;;;;;5102810;28;20039;-77
2022/03/04 09:36:46;;;;;;;62.05;23.83;;;;;;;;;;5102477;27;20028;-77
2022/03/04 09:39:12;;;;;;;28.42;18.23;;;;;;;;;;5099739;28;20479;-78
2022/03/04 09:41:44;;;;;;;28.23;18.15;;;;;;;;;;5106523;28;20463;-78
2022/03/04 09:44:10;;;;;;;34.00;19.33;;;;;;;;;;5104165;28;20915;-77
2022/03/04 09:46:36;;;;;;;30.95;18.13;;;;;;;;;;5099978;27;20031;-76
2022/03/04 09:49:02;;;;;;;31.67;19.20;;;;;;;;;;5109451;28;20036;-76
2022/03/04 09:51:28;;;;;;;33.47;19.17;;;;;;;;;;5088234;28;20024;-77
2022/03/04 09:53:54;;;;;;;31.13;18.52;;;;;;;;;;5110720;28;20031;-77
2022/03/04 09:56:20;;;;;;;31.13;18.27;;;;;;;;;;5097370;28;20035;-77
2022/03/04 09:58:47;;;;;;;28.63;17.25;;;;;;;;;;5109000;28;20031;-79
2022/03/04 10:01:14;;;;;;;29.65;16.73;;;;;;;;;;5103422;28;20080;-76
2022/03/04 10:03:40;;;;;;;28.52;16.40;;;;;;;;;;5103605;27;20046;-77
2022/03/04 10:06:06;;;;;;;26.65;17.67;;;;;;;;;;5107397;28;20035;-77
2022/03/04 10:08:39;;;;;;;25.45;16.35;;;;;;;;;;5091891;28;20028;-77
2022/03/04 10:11:07;;;;;;;23.50;16.70;;;;;;;;;;5102087;27;20483;-77
2022/03/04 10:13:44;;;;;;;20.95;15.38;;;;;;;;;;5105057;28;20471;-77
2022/03/04 10:16:11;;;;;;;27.42;18.20;;;;;;;;;;5102335;27;20043;-79
2022/03/04 10:18:37;;;;;;;19.20;13.50;;;;;;;;;;5105118;28;20020;-83
2022/03/04 10:21:03;;;;;;;16.80;12.95;;;;;;;;;;5109290;27;20035;-77
2022/03/04 10:23:30;;;;;;;18.38;14.05;;;;;;;;;;5103086;27;20077;-77
2022/03/04 10:25:58;;;;;;;17.13;11.98;;;;;;;;;;5095922;28;20115;-77
2022/03/04 10:28:25;;;;;;;18.38;13.15;;;;;;;;;;5104038;27;20039;-77
2022/03/04 10:30:52;;;;;;;17.60;13.35;;;;;;;;;;5100042;28;20118;-77
2022/03/04 10:33:22;;;;;;;15.55;12.43;;;;;;;;;;5092229;28;20101;-76
2022/03/04 10:36:06;;;;;;;16.65;12.38;;;;;;;;;;5101264;28;20103;-76
2022/03/04 10:38:32;;;;;;;16.38;12.43;;;;;;;;;;5107151;28;20057;-79
2022/03/04 10:40:58;;;;;;;15.55;12.27;;;;;;;;;;5100932;28;20031;-77
2022/03/04 10:43:30;;;;;;;24.55;18.17;;;;;;;;;;5100276;27;21125;-76
2022/03/04 10:46:04;;;;;;;31.95;22.25;;;;;;;;;;5101511;28;20123;-76
2022/03/04 10:48:31;;;;;;;16.50;12.40;;;;;;;;;;5100197;28;20032;-76
2022/03/04 10:50:58;;;;;;;18.02;12.85;;;;;;;;;;5095074;28;20031;-76
2022/03/04 10:53:24;;;;;;;13.48;11.40;;;;;;;;;;5095252;28;20024;-76
2022/03/04 10:55:55;;;;;;;14.55;11.32;;;;;;;;;;5086500;28;20505;-76
2022/03/04 10:58:22;;;;;;;17.77;12.30;;;;;;;;;;5104821;28;20043;-76
2022/03/04 11:00:52;;;;;;;13.95;11.45;;;;;;;;;;5100511;28;20023;-77
2022/03/04 11:03:20;;;;;;;15.80;12.57;;;;;;;;;;5082171;28;20368;-76
2022/03/04 11:05:47;;;;;;;16.85;12.25;;;;;;;;;;5099542;28;20028;-77
2022/03/04 11:08:13;;;;;;;14.80;11.88;;;;;;;;;;5108573;28;20042;-77
2022/03/04 11:10:40;;;;;;;14.43;11.23;;;;;;;;;;5092182;28;20032;-77
2022/03/04 11:13:07;;;;;;;15.05;11.90;;;;;;;;;;5101587;28;20564;-76
2022/03/04 11:15:34;;;;;;;17.58;12.43;;;;;;;;;;5109693;28;20023;-76
2022/03/04 11:18:04;;;;;;;13.25;11.18;;;;;;;;;;5094423;28;20038;-76
2022/03/04 11:20:30;;;;;;;16.35;12.18;;;;;;;;;;5106871;27;21170;-77
2022/03/04 11:22:57;;;;;;;14.40;11.60;;;;;;;;;;5103494;28;20031;-75
2022/03/04 11:25:23;;;;;;;13.98;10.57;;;;;;;;;;5086592;28;20032;-75
2022/03/04 11:27:52;;;;;;;15.50;11.98;;;;;;;;;;5110373;28;20140;-76
2022/03/04 11:30:34;;;;;;;15.70;12.05;;;;;;;;;;5103501;27;20036;-74
2022/03/04 11:33:00;;;;;;;16.27;12.65;;;;;;;;;;5099540;28;20032;-74
2022/03/04 11:35:48;;;;;;;17.58;11.90;;;;;;;;;;5094335;28;20043;-74
2022/03/04 11:38:18;;;;;;;16.73;12.35;;;;;;;;;;5114370;27;20411;-74
2022/03/04 11:40:50;;;;;;;17.80;11.82;;;;;;;;;;5103741;27;20055;-77
2022/03/04 11:43:18;;;;;;;18.25;11.88;;;;;;;;;;5105847;28;20035;-76
2022/03/04 11:45:44;;;;;;;16.23;11.32;;;;;;;;;;5104209;28;20027;-76
2022/03/04 11:48:13;;;;;;;17.58;12.25;;;;;;;;;;5089349;28;20019;-74
2022/03/04 11:50:45;;;;;;;15.48;11.50;;;;;;;;;;5110655;27;20653;-74
2022/03/04 11:53:17;;;;;;;16.55;11.60;;;;;;;;;;5102381;28;20518;-74
2022/03/04 11:56:02;;;;;;;16.88;11.30;;;;;;;;;;5105674;28;20037;-74
2022/03/04 11:58:28;;;;;;;15.02;11.05;;;;;;;;;;5107548;27;20034;-76
2022/03/04 12:01:14;;;;;;;16.48;10.32;;;;;;;;;;5108567;27;20035;-75
2022/03/04 12:04:00;;;;;;;16.60;11.52;;;;;;;;;;5102482;28;20028;-74
2022/03/04 12:06:26;;;;;;;16.17;10.77;;;;;;;;;;5097017;28;20034;-75
2022/03/04 12:08:54;;;;;;;48.20;25.85;;;;;;;;;;5100243;27;20482;-75
2022/03/04 12:11:24;;;;;;;23.75;15.65;;;;;;;;;;5113113;28;20421;-75
2022/03/04 12:14:07;;;;;;;14.70;9.85;;;;;;;;;;5105695;27;20039;-75
2022/03/04 12:16:49;;;;;;;15.18;10.88;;;;;;;;;;5109218;28;20020;-76
2022/03/04 12:19:30;;;;;;;16.65;10.27;;;;;;;;;;5103251;27;20031;-75
2022/03/04 12:21:57;;;;;;;14.60;9.65;;;;;;;;;;5102879;28;20046;-75
2022/03/04 12:24:30;;;;;;;14.38;9.25;;;;;;;;;;5101577;28;20039;-75
2022/03/04 12:26:57;;;;;;;13.82;9.13;;;;;;;;;;5088363;28;20076;-75
2022/03/04 12:29:41;;;;;;;14.15;7.90;;;;;;;;;;5100417;27;20096;-75
2022/03/04 12:32:07;;;;;;;12.85;8.73;;;;;;;;;;5106519;28;20476;-75
2022/03/04 12:34:34;;;;;;;12.02;8.48;;;;;;;;;;5105645;27;20043;-75
2022/03/04 12:37:05;;;;;;;12.95;8.55;;;;;;;;;;5103949;27;20032;-75
2022/03/04 12:39:35;;;;;;;13.48;8.07;;;;;;;;;;5096965;28;20031;-75
2022/03/04 12:42:01;;;;;;;14.07;8.68;;;;;;;;;;5101776;28;20069;-76
2022/03/04 12:44:27;;;;;;;11.80;8.35;;;;;;;;;;5102321;28;20084;-75
2022/03/04 12:46:54;;;;;;;10.57;7.78;;;;;;;;;;5099926;28;20059;-74
2022/03/04 12:49:28;;;;;;;18.52;11.65;;;;;;;;;;5104431;28;20482;-77
2022/03/04 12:51:54;;;;;;;22.73;13.32;;;;;;;;;;5104874;28;20031;-77
2022/03/04 12:54:42;;;;;;;13.55;8.43;;;;;;;;;;5098768;27;20082;-75
2022/03/04 12:57:08;;;;;;;13.20;8.77;;;;;;;;;;5101289;27;20035;-76
2022/03/04 12:59:47;;;;;;;14.70;9.45;;;;;;;;;;5103033;27;20035;-76
2022/03/04 13:02:14;;;;;;;12.73;8.73;;;;;;;;;;5106139;27;20028;-76
2022/03/04 13:04:41;;;;;;;15.13;8.63;;;;;;;;;;5111124;28;20101;-75
2022/03/04 13:07:07;;;;;;;10.43;8.40;;;;;;;;;;5110424;27;20030;-74
2022/03/04 13:09:33;;;;;;;12.85;8.63;;;;;;;;;;5104944;28;20085;-76
2022/03/04 13:12:08;;;;;;;15.23;8.93;;;;;;;;;;5108581;28;20019;-76
2022/03/04 13:14:34;;;;;;;15.82;8.98;;;;;;;;;;5103624;28;20042;-76
2022/03/04 13:17:00;;;;;;;10.98;7.78;;;;;;;;;;5108587;28;20020;-76
2022/03/04 13:19:29;;;;;;;13.93;8.73;;;;;;;;;;5095981;28;20483;-76
2022/03/04 13:22:02;;;;;;;13.48;8.85;;;;;;;;;;5102856;27;20043;-76
2022/03/04 13:24:32;;;;;;;13.45;9.25;;;;;;;;;;5105074;28;20059;-77
2022/03/04 13:27:00;;;;;;;13.48;9.43;;;;;;;;;;5077803;28;21079;-77
2022/03/04 13:29:38;;;;;;;13.75;8.27;;;;;;;;;;5100551;28;20504;-77
2022/03/04 13:32:11;;;;;;;11.02;8.15;;;;;;;;;;5113221;27;20019;-76
2022/03/04 13:34:38;;;;;;;13.63;8.63;;;;;;;;;;5102888;28;20028;-76
2022/03/04 13:37:08;;;;;;;13.52;8.90;;;;;;;;;;5096634;28;20048;-76
2022/03/04 13:39:35;;;;;;;13.15;8.38;;;;;;;;;;5096717;28;20050;-74
2022/03/04 13:42:15;;;;;;;11.32;8.57;;;;;;;;;;5100817;28;20137;-75
2022/03/04 13:44:52;;;;;;;12.77;9.52;;;;;;;;;;5109050;28;20089;-75
2022/03/04 13:47:31;;;;;;;13.70;8.88;;;;;;;;;;5095858;27;20088;-75
2022/03/04 13:49:58;;;;;;;13.10;9.05;;;;;;;;;;5101672;27;20406;-76
2022/03/04 13:52:24;;;;;;;13.45;9.23;;;;;;;;;;5075208;28;20139;-75
2022/03/04 13:54:50;;;;;;;15.50;8.52;;;;;;;;;;5096473;27;20050;-75
2022/03/04 13:57:28;;;;;;;15.05;9.95;;;;;;;;;;5097425;28;20494;-75
2022/03/04 13:59:59;;;;;;;13.57;9.38;;;;;;;;;;5093831;28;20387;-75
2022/03/04 14:02:26;;;;;;;12.95;9.75;;;;;;;;;;5101867;28;20081;-74
2022/03/04 14:04:53;;;;;;;13.13;9.07;;;;;;;;;;5094008;28;20019;-75
2022/03/04 14:07:20;;;;;;;13.68;9.50;;;;;;;;;;5104322;27;20034;-75
2022/03/04 14:09:48;;;;;;;14.57;9.43;;;;;;;;;;5103257;28;20032;-75
2022/03/04 14:12:14;;;;;;;14.27;9.88;;;;;;;;;;5092933;28;20024;-75
2022/03/04 14:14:40;;;;;;;11.27;8.35;;;;;;;;;;5100725;27;20436;-75
2022/03/04 14:17:07;;;;;;;10.98;7.53;;;;;;;;;;5086879;28;20098;-75
2022/03/04 14:19:33;;;;;;;10.63;8.07;;;;;;;;;;5103667;28;20035;-76